createdAt,value
2022-12-13T00:00:57.247Z,11.18
2022-12-13T00:03:24.665Z,11.30
2022-12-13T00:05:52.046Z,11.20
2022-12-13T00:08:19.414Z,12.23
2022-12-13T00:10:46.755Z,12.18
2022-12-13T00:13:14.102Z,12.23
2022-12-13T00:15:41.485Z,11.38
2022-12-13T00:18:08.842Z,11.18
2022-12-13T00:20:40.065Z,11.95
2022-12-13T00:23:07.381Z,11.85
2022-12-13T00:25:34.780Z,12.35
2022-12-13T00:28:02.161Z,12.35
2022-12-13T00:30:31.728Z,12.25
2022-12-13T00:32:59.495Z,12.23
2022-12-13T00:35:26.823Z,12.52
2022-12-13T00:37:54.127Z,12.40
2022-12-13T00:40:21.487Z,12.80
2022-12-13T00:42:49.088Z,13.00
2022-12-13T00:45:16.785Z,12.68
2022-12-13T00:47:44.487Z,13.35
2022-12-13T00:50:11.766Z,12.57
2022-12-13T00:52:39.297Z,13.00
2022-12-13T00:55:07.113Z,13.85
2022-12-13T00:57:35.296Z,13.98
2022-12-13T01:00:04.282Z,14.20
2022-12-13T01:02:31.582Z,15.02
2022-12-13T01:04:59.257Z,14.45
2022-12-13T01:07:26.647Z,14.55
2022-12-13T01:09:53.950Z,15.32
2022-12-13T01:12:21.332Z,15.05
2022-12-13T01:14:53.070Z,14.48
2022-12-13T01:17:23.135Z,14.60
2022-12-13T01:19:50.463Z,14.35
2022-12-13T01:22:17.848Z,14.77
2022-12-13T01:24:45.193Z,14.52
2022-12-13T01:27:12.499Z,13.95
2022-12-13T01:29:39.780Z,14.38
2022-12-13T01:32:07.047Z,14.60
2022-12-13T01:34:34.334Z,13.50
2022-12-13T01:37:01.614Z,14.63
2022-12-13T01:39:29.029Z,14.52
2022-12-13T01:42:00.031Z,14.25
2022-12-13T01:44:55.592Z,14.57
2022-12-13T01:47:43.678Z,13.52
2022-12-13T01:50:17.457Z,14.38
2022-12-13T01:55:12.002Z,13.38
2022-12-13T01:57:45.361Z,14.05
2022-12-13T02:00:14.573Z,14.23
2022-12-13T02:02:41.892Z,13.55
2022-12-13T02:05:30.947Z,13.90
2022-12-13T02:07:58.629Z,14.07
2022-12-13T02:10:26.420Z,14.27
2022-12-13T02:12:54.166Z,15.13
2022-12-13T02:15:21.502Z,14.68
2022-12-13T02:18:22.432Z,14.93
2022-12-13T02:21:01.673Z,14.90
2022-12-13T02:23:53.653Z,16.50
2022-12-13T02:26:30.014Z,15.25
2022-12-13T02:29:09.496Z,15.23
2022-12-13T02:31:54.598Z,16.38
2022-12-13T02:34:34.603Z,15.40
2022-12-13T02:37:24.621Z,14.35
2022-12-13T02:39:58.681Z,14.18
2022-12-13T02:42:31.341Z,13.55
2022-12-13T02:45:20.086Z,14.80
2022-12-13T02:47:48.058Z,15.07
2022-12-13T02:50:15.398Z,14.40
2022-12-13T02:52:43.191Z,15.30
2022-12-13T02:55:13.735Z,16.08
2022-12-13T02:57:42.604Z,15.18
2022-12-13T03:00:30.465Z,15.48
2022-12-13T03:03:18.747Z,15.65
2022-12-13T03:06:11.936Z,14.90
2022-12-13T03:09:24.600Z,16.02
2022-12-13T03:12:35.536Z,15.98
2022-12-13T03:15:23.849Z,15.82
2022-12-13T03:17:59.699Z,15.70
2022-12-13T03:20:27.973Z,16.65
2022-12-13T03:22:55.849Z,15.73
2022-12-13T03:25:32.047Z,14.82
2022-12-13T03:28:03.106Z,15.48
2022-12-13T03:30:31.712Z,14.98
2022-12-13T03:32:59.166Z,14.90
2022-12-13T03:35:34.503Z,15.73
2022-12-13T03:38:02.660Z,14.75
2022-12-13T03:40:29.973Z,15.60
2022-12-13T03:42:57.473Z,13.65
2022-12-13T03:45:24.857Z,14.32
2022-12-13T03:47:52.227Z,15.35
2022-12-13T03:50:26.239Z,14.93
2022-12-13T03:53:03.937Z,14.48
2022-12-13T03:55:31.238Z,14.30
2022-12-13T03:58:01.941Z,14.98
2022-12-13T04:00:32.037Z,15.05
2022-12-13T04:02:59.418Z,14.15
2022-12-13T04:05:26.700Z,15.73
2022-12-13T04:07:54.040Z,14.90
2022-12-13T04:10:28.316Z,15.13
2022-12-13T04:13:14.395Z,15.10
2022-12-13T04:15:48.894Z,15.40
2022-12-13T04:18:17.682Z,14.75
2022-12-13T04:20:45.244Z,13.82
2022-12-13T04:23:12.621Z,14.50
2022-12-13T04:25:40.257Z,14.70
2022-12-13T04:28:07.681Z,14.80
2022-12-13T04:30:35.062Z,13.88
2022-12-13T04:33:02.883Z,15.32
2022-12-13T04:35:30.273Z,14.13
2022-12-13T04:37:57.595Z,13.75
2022-12-13T04:40:24.949Z,13.48
2022-12-13T04:42:54.204Z,14.10
2022-12-13T04:45:22.126Z,13.13
2022-12-13T04:47:49.961Z,14.02
2022-12-13T04:50:17.453Z,13.57
2022-12-13T04:52:44.981Z,13.20
2022-12-13T04:55:12.641Z,13.90
2022-12-13T04:57:40.288Z,14.27
2022-12-13T05:00:09.833Z,13.35
2022-12-13T05:02:37.195Z,13.05
2022-12-13T05:05:04.833Z,12.95
2022-12-13T05:07:32.149Z,13.60
2022-12-13T05:09:59.465Z,12.60
2022-12-13T05:12:26.749Z,12.10
2022-12-13T05:14:54.217Z,11.93
2022-12-13T05:17:21.570Z,12.13
2022-12-13T05:19:48.904Z,12.27
2022-12-13T05:22:20.191Z,11.80
2022-12-13T05:24:48.141Z,12.13
2022-12-13T05:27:25.016Z,12.50
2022-12-13T05:30:03.961Z,11.40
2022-12-13T05:32:43.269Z,12.38
2022-12-13T05:35:22.007Z,11.85
2022-12-13T05:37:53.402Z,11.88
2022-12-13T05:40:31.721Z,13.57
2022-12-13T05:43:00.757Z,12.23
2022-12-13T05:45:32.717Z,15.13
2022-12-13T05:48:00.168Z,12.45
2022-12-13T05:50:27.455Z,12.95
2022-12-13T05:52:54.779Z,11.35
2022-12-13T05:55:22.055Z,12.48
2022-12-13T05:57:50.088Z,12.10
2022-12-13T06:00:30.055Z,12.27
2022-12-13T06:03:00.702Z,12.43
2022-12-13T06:05:29.858Z,12.80
2022-12-13T06:07:58.170Z,12.70
2022-12-13T06:10:34.286Z,14.60
2022-12-13T06:13:21.098Z,12.45
2022-12-13T06:15:51.287Z,12.20
2022-12-13T06:18:18.660Z,12.68
2022-12-13T06:20:57.265Z,13.70
2022-12-13T06:23:24.808Z,12.80
2022-12-13T06:25:52.159Z,15.02
2022-12-13T06:28:19.603Z,12.93
2022-12-13T06:30:47.073Z,13.10
2022-12-13T06:33:14.486Z,12.75
2022-12-13T06:35:52.670Z,12.23
2022-12-13T06:38:30.903Z,12.88
2022-12-13T06:41:15.349Z,12.85
2022-12-13T06:46:11.212Z,13.27
2022-12-13T06:48:40.613Z,13.75
2022-12-13T06:51:09.066Z,13.80
2022-12-13T06:53:37.448Z,13.30
2022-12-13T06:56:09.229Z,13.02
2022-12-13T06:58:36.560Z,13.55
2022-12-13T07:01:14.980Z,13.43
2022-12-13T07:03:42.885Z,13.65
2022-12-13T07:06:14.353Z,14.43
2022-12-13T07:08:42.925Z,14.27
2022-12-13T07:11:21.401Z,13.95
2022-12-13T07:13:48.814Z,14.55
2022-12-13T07:16:16.220Z,13.35
2022-12-13T07:18:43.529Z,15.30
2022-12-13T07:21:22.312Z,14.73
2022-12-13T07:23:54.996Z,15.65
2022-12-13T07:26:23.097Z,12.20
2022-12-13T07:28:55.056Z,15.27
2022-12-13T07:31:24.199Z,14.52
2022-12-13T07:33:51.878Z,15.32
2022-12-13T07:36:20.559Z,14.93
2022-12-13T07:38:55.046Z,16.10
2022-12-13T07:41:24.096Z,15.93
2022-12-13T07:43:55.799Z,16.88
2022-12-13T07:46:32.525Z,16.27
2022-12-13T07:49:04.608Z,15.55
2022-12-13T07:51:34.846Z,16.17
2022-12-13T07:54:07.161Z,16.70
2022-12-13T07:56:35.398Z,16.90
2022-12-13T07:59:02.767Z,15.70
2022-12-13T08:01:35.164Z,16.98
2022-12-13T08:04:03.293Z,16.02
2022-12-13T08:06:32.300Z,16.33
2022-12-13T08:08:59.558Z,16.60
2022-12-13T08:11:27.145Z,18.38
2022-12-13T08:13:55.045Z,17.30
2022-12-13T08:16:26.272Z,16.35
2022-12-13T08:19:02.850Z,17.00
2022-12-13T08:21:56.647Z,17.17
2022-12-13T08:24:26.777Z,16.00
2022-12-13T08:26:55.377Z,16.85
2022-12-13T08:29:34.670Z,16.38
2022-12-13T08:32:04.391Z,17.25
2022-12-13T08:34:31.882Z,15.88
2022-12-13T08:37:02.751Z,15.98
2022-12-13T08:39:36.243Z,16.58
2022-12-13T08:42:15.735Z,17.42
2022-12-13T08:44:51.726Z,16.70
2022-12-13T08:47:25.887Z,16.60
2022-12-13T08:50:01.513Z,17.02
2022-12-13T08:52:40.727Z,15.73
2022-12-13T08:55:12.377Z,15.57
2022-12-13T08:57:40.612Z,16.17
2022-12-13T09:00:09.443Z,16.13
2022-12-13T09:02:37.987Z,15.63
2022-12-13T09:05:07.452Z,15.80
2022-12-13T09:07:36.289Z,14.55
2022-12-13T09:10:25.357Z,15.85
2022-12-13T09:12:53.669Z,14.98
2022-12-13T09:15:29.113Z,15.00
2022-12-13T09:18:04.715Z,15.05
2022-12-13T09:20:40.817Z,13.73
2022-12-13T09:23:13.850Z,15.93
2022-12-13T09:26:05.536Z,14.93
2022-12-13T09:28:35.003Z,13.43
2022-12-13T09:31:06.875Z,13.48
2022-12-13T09:33:41.163Z,14.48
2022-12-13T09:36:13.945Z,15.43
2022-12-13T09:38:41.375Z,14.48
2022-12-13T09:41:20.290Z,13.95
2022-12-13T09:43:54.273Z,16.25
2022-12-13T09:46:35.011Z,15.85
2022-12-13T09:52:10.970Z,15.07
2022-12-13T09:54:47.827Z,15.65
2022-12-13T09:57:32.146Z,15.55
2022-12-13T10:00:06.193Z,15.10
2022-12-13T10:02:46.265Z,17.52
2022-12-13T10:05:34.364Z,16.08
2022-12-13T10:08:28.534Z,15.60
2022-12-13T10:10:55.893Z,15.88
2022-12-13T10:13:39.998Z,15.52
2022-12-13T10:16:23.570Z,14.82
2022-12-13T10:18:51.616Z,16.83
2022-12-13T10:21:26.814Z,15.63
2022-12-13T10:24:24.184Z,15.98
2022-12-13T10:26:48.415Z,16.33
2022-12-13T10:29:15.781Z,16.77
2022-12-13T10:31:45.771Z,16.60
2022-12-13T10:34:29.597Z,15.70
2022-12-13T10:36:59.564Z,17.13
2022-12-13T10:39:41.894Z,16.95
2022-12-13T10:42:14.146Z,15.80
2022-12-13T10:44:54.245Z,17.13
2022-12-13T10:47:24.922Z,15.60
2022-12-13T10:49:59.060Z,16.67
2022-12-13T10:52:31.593Z,16.00
2022-12-13T10:55:22.779Z,15.93
2022-12-13T10:57:56.777Z,16.13
2022-12-13T11:00:32.577Z,14.27
2022-12-13T11:03:00.162Z,16.77
2022-12-13T11:05:35.024Z,18.27
2022-12-13T11:08:20.535Z,16.88
2022-12-13T11:11:00.527Z,16.90
2022-12-13T11:13:39.076Z,19.30
2022-12-13T11:16:24.741Z,17.38
2022-12-13T11:18:56.652Z,18.05
2022-12-13T11:21:32.619Z,17.27
2022-12-13T11:24:02.399Z,17.05
2022-12-13T11:26:30.943Z,16.80
2022-12-13T11:29:12.509Z,16.90
2022-12-13T11:32:00.854Z,17.90
2022-12-13T11:34:32.686Z,15.88
2022-12-13T11:37:21.946Z,17.33
2022-12-13T11:40:01.206Z,16.30
2022-12-13T11:42:41.486Z,16.88
2022-12-13T11:45:24.573Z,15.80
2022-12-13T11:48:13.347Z,18.45
2022-12-13T11:50:42.040Z,17.77
2022-12-13T11:53:23.405Z,16.55
2022-12-13T11:56:19.743Z,15.85
2022-12-13T11:59:05.522Z,17.08
2022-12-13T12:01:45.570Z,17.52
2022-12-13T12:04:15.568Z,16.85
2022-12-13T12:06:47.476Z,16.38
2022-12-13T12:09:15.689Z,16.98
2022-12-13T12:12:02.181Z,15.30
2022-12-13T12:14:40.415Z,18.15
2022-12-13T12:17:14.647Z,17.10
2022-12-13T12:19:52.472Z,17.55
2022-12-13T12:22:33.659Z,17.33
2022-12-13T12:25:16.252Z,16.45
2022-12-13T12:27:55.410Z,17.67
2022-12-13T12:30:32.075Z,17.00
2022-12-13T12:33:37.305Z,16.77
2022-12-13T12:36:10.883Z,17.17
2022-12-13T12:38:50.344Z,16.38
2022-12-13T12:41:26.987Z,17.30
2022-12-13T12:44:03.328Z,17.38
2022-12-13T12:46:52.332Z,16.23
2022-12-13T12:49:34.025Z,15.80
2022-12-13T12:52:21.408Z,17.30
2022-12-13T12:55:24.348Z,18.60
2022-12-13T12:58:16.111Z,17.80
2022-12-13T13:01:12.006Z,17.77
2022-12-13T13:03:40.497Z,20.55
2022-12-13T13:06:24.366Z,18.50
2022-12-13T13:08:59.442Z,18.80
2022-12-13T13:11:29.153Z,18.48
2022-12-13T13:14:01.902Z,17.27
2022-12-13T13:16:37.516Z,17.55
2022-12-13T13:19:05.624Z,17.80
2022-12-13T13:21:34.848Z,18.48
2022-12-13T13:24:02.167Z,17.23
2022-12-13T13:26:35.866Z,18.05
2022-12-13T13:29:26.952Z,18.00
2022-12-13T13:32:29.061Z,18.73
2022-12-13T13:35:28.581Z,17.45
2022-12-13T13:37:57.240Z,16.98
2022-12-13T13:40:36.954Z,17.23
2022-12-13T13:43:10.118Z,17.50
2022-12-13T13:45:49.447Z,17.00
2022-12-13T13:48:44.110Z,16.50
2022-12-13T13:51:41.492Z,15.60
2022-12-13T13:54:53.102Z,16.80
2022-12-13T13:58:11.522Z,16.02
2022-12-13T14:00:53.527Z,16.17
2022-12-13T14:03:46.246Z,16.73
2022-12-13T14:06:20.005Z,16.60
2022-12-13T14:08:56.326Z,16.83
2022-12-13T14:11:44.705Z,17.42
2022-12-13T14:14:39.078Z,16.90
2022-12-13T14:17:21.406Z,16.50
2022-12-13T14:19:56.527Z,18.05
2022-12-13T14:22:41.409Z,17.83
2022-12-13T14:25:08.714Z,21.55
2022-12-13T14:27:57.812Z,19.60
2022-12-13T14:30:27.796Z,18.40
2022-12-13T14:32:56.714Z,18.67
2022-12-13T14:35:28.273Z,18.40
2022-12-13T14:37:57.735Z,18.00
2022-12-13T14:40:36.569Z,18.65
2022-12-13T14:43:04.088Z,18.98
2022-12-13T14:45:33.251Z,19.35
2022-12-13T14:48:02.802Z,18.08
2022-12-13T14:50:33.328Z,18.73
2022-12-13T14:53:03.118Z,20.13
2022-12-13T14:55:32.068Z,19.25
2022-12-13T14:58:00.367Z,20.38
2022-12-13T15:00:35.935Z,18.60
2022-12-13T15:03:04.379Z,18.35
2022-12-13T15:05:50.214Z,19.75
2022-12-13T15:08:21.572Z,18.70
2022-12-13T15:10:51.515Z,18.33
2022-12-13T15:13:23.163Z,19.98
2022-12-13T15:15:55.567Z,19.42
2022-12-13T15:18:36.192Z,18.43
2022-12-13T15:21:24.314Z,19.02
2022-12-13T15:23:58.066Z,19.92
2022-12-13T15:26:29.937Z,19.85
2022-12-13T15:28:59.246Z,18.23
2022-12-13T15:31:26.649Z,18.88
2022-12-13T15:34:01.196Z,20.83
2022-12-13T15:36:28.828Z,20.40
2022-12-13T15:38:56.146Z,20.13
2022-12-13T15:41:33.056Z,21.23
2022-12-13T15:44:02.854Z,20.75
2022-12-13T15:46:31.730Z,20.27
2022-12-13T15:49:00.891Z,21.05
2022-12-13T15:51:29.619Z,20.40
2022-12-13T15:54:21.853Z,20.55
2022-12-13T15:57:17.548Z,19.50
2022-12-13T15:59:45.923Z,18.95
2022-12-13T16:02:23.587Z,22.98
2022-12-13T16:04:51.292Z,19.02
2022-12-13T16:07:28.334Z,18.50
2022-12-13T16:09:57.386Z,19.27
2022-12-13T16:12:47.991Z,19.30
2022-12-13T16:15:29.352Z,19.08
2022-12-13T16:18:16.251Z,18.15
2022-12-13T16:20:44.880Z,18.05
2022-12-13T16:23:27.132Z,19.02
2022-12-13T16:25:55.282Z,19.42
2022-12-13T16:28:26.198Z,18.13
2022-12-13T16:30:53.797Z,18.35
2022-12-13T16:33:27.370Z,18.85
2022-12-13T16:35:55.754Z,20.75
2022-12-13T16:38:26.640Z,51.22
2022-12-13T16:40:55.920Z,20.75
2022-12-13T16:43:33.032Z,19.85
2022-12-13T16:47:11.963Z,19.80
2022-12-13T16:48:51.653Z,20.08
2022-12-13T16:51:19.234Z,19.50
2022-12-13T16:53:47.159Z,18.80
2022-12-13T16:56:16.456Z,19.00
2022-12-13T16:58:49.585Z,19.33
2022-12-13T17:01:20.057Z,18.20
2022-12-13T17:03:47.660Z,19.95
2022-12-13T17:06:16.058Z,19.20
2022-12-13T17:08:43.354Z,19.02
2022-12-13T17:11:16.188Z,19.83
2022-12-13T17:13:47.476Z,18.50
2022-12-13T17:16:15.035Z,19.42
2022-12-13T17:18:42.485Z,20.25
2022-12-13T17:21:38.668Z,19.15
2022-12-13T17:24:06.337Z,19.65
2022-12-13T17:26:33.687Z,19.88
2022-12-13T17:29:01.304Z,18.98
2022-12-13T17:31:34.904Z,20.52
2022-12-13T17:34:04.040Z,19.58
2022-12-13T17:36:31.595Z,20.90
2022-12-13T17:38:59.409Z,19.83
2022-12-13T17:41:26.759Z,19.73
2022-12-13T17:43:57.714Z,20.55
2022-12-13T17:46:25.538Z,20.42
2022-12-13T17:48:52.939Z,21.15
2022-12-13T17:51:20.331Z,22.77
2022-12-13T17:53:47.715Z,20.35
2022-12-13T17:56:16.031Z,21.35
2022-12-13T17:58:43.563Z,20.10
2022-12-13T18:01:24.299Z,20.42
2022-12-13T18:03:52.853Z,20.58
2022-12-13T18:06:20.226Z,19.63
2022-12-13T18:08:47.832Z,20.20
2022-12-13T18:11:33.473Z,20.08
2022-12-13T18:14:02.740Z,20.98
2022-12-13T18:16:36.297Z,21.23
2022-12-13T18:19:06.365Z,20.35
2022-12-13T18:21:34.109Z,20.35
2022-12-13T18:24:01.439Z,21.15
2022-12-13T18:26:28.787Z,20.48
2022-12-13T18:28:56.190Z,20.40
2022-12-13T18:31:24.203Z,21.13
2022-12-13T18:33:52.480Z,20.38
2022-12-13T18:36:20.789Z,21.48
2022-12-13T18:38:48.427Z,21.15
2022-12-13T18:41:18.155Z,21.92
2022-12-13T18:43:45.711Z,21.10
2022-12-13T18:46:13.543Z,22.77
2022-12-13T18:48:41.161Z,20.67
2022-12-13T18:51:09.141Z,20.48
2022-12-13T18:53:37.719Z,21.13
2022-12-13T18:56:10.414Z,19.13
2022-12-13T18:58:41.726Z,19.55
2022-12-13T19:01:10.458Z,19.17
2022-12-13T19:03:38.129Z,20.00
2022-12-13T19:06:06.237Z,20.15
2022-12-13T19:08:33.603Z,18.98
2022-12-13T19:11:01.867Z,18.65
2022-12-13T19:13:29.838Z,20.30
2022-12-13T19:15:58.372Z,18.50
2022-12-13T19:18:25.705Z,18.40
2022-12-13T19:20:53.616Z,18.05
2022-12-13T19:23:21.070Z,18.00
2022-12-13T19:25:48.858Z,18.83
2022-12-13T19:28:17.630Z,18.10
2022-12-13T19:30:46.058Z,18.00
2022-12-13T19:33:13.879Z,18.33
2022-12-13T19:35:43.023Z,16.77
2022-12-13T19:38:10.468Z,16.55
2022-12-13T19:40:41.948Z,17.20
2022-12-13T19:43:10.309Z,18.85
2022-12-13T19:45:37.602Z,17.40
2022-12-13T19:48:05.671Z,17.02
2022-12-13T19:50:33.040Z,17.13
2022-12-13T19:53:00.351Z,17.02
2022-12-13T19:55:28.144Z,15.70
2022-12-13T19:57:55.581Z,16.77
2022-12-13T20:00:22.995Z,15.98
2022-12-13T20:02:50.761Z,15.20
2022-12-13T20:05:18.562Z,15.77
2022-12-13T20:07:45.947Z,16.30
2022-12-13T20:10:15.791Z,15.93
2022-12-13T20:12:45.565Z,14.68
2022-12-13T20:15:13.098Z,15.77
2022-12-13T20:17:41.747Z,15.88
2022-12-13T20:20:09.620Z,15.00
2022-12-13T20:22:36.973Z,15.70
2022-12-13T20:25:04.554Z,14.73
2022-12-13T20:27:31.894Z,14.68
2022-12-13T20:29:59.577Z,14.75
2022-12-13T20:32:26.873Z,14.77
2022-12-13T20:34:55.136Z,15.00
2022-12-13T20:37:24.421Z,15.05
2022-12-13T20:39:51.743Z,15.00
2022-12-13T20:42:19.232Z,14.27
2022-12-13T20:44:46.552Z,15.70
2022-12-13T20:47:13.891Z,15.63
2022-12-13T20:49:41.514Z,14.82
2022-12-13T20:52:08.866Z,16.17
2022-12-13T20:54:36.281Z,15.35
2022-12-13T20:57:03.664Z,15.30
2022-12-13T20:59:32.132Z,16.00
2022-12-13T21:01:59.476Z,14.63
2022-12-13T21:04:28.063Z,15.55
2022-12-13T21:06:55.381Z,16.45
2022-12-13T21:09:22.699Z,15.93
2022-12-13T21:11:50.191Z,14.90
2022-12-13T21:14:28.523Z,14.85
2022-12-13T21:16:59.714Z,15.68
2022-12-13T21:19:39.000Z,14.35
2022-12-13T21:22:07.869Z,15.07
2022-12-13T21:24:35.207Z,22.80
2022-12-13T21:27:02.567Z,15.75
2022-12-13T21:29:29.914Z,15.55
2022-12-13T21:31:57.358Z,15.98
2022-12-13T21:34:24.861Z,14.80
2022-12-13T21:36:52.689Z,16.20
2022-12-13T21:39:24.730Z,15.23
2022-12-13T21:41:52.182Z,15.93
2022-12-13T21:44:19.575Z,16.58
2022-12-13T21:47:11.414Z,15.70
2022-12-13T21:49:34.422Z,16.33
2022-12-13T21:52:01.762Z,15.82
2022-12-13T21:54:29.138Z,15.70
2022-12-13T21:57:15.145Z,16.58
2022-12-13T21:59:43.214Z,16.17
2022-12-13T22:02:18.214Z,16.30
2022-12-13T22:04:56.296Z,17.15
2022-12-13T22:07:31.548Z,16.35
2022-12-13T22:10:00.217Z,17.20
2022-12-13T22:12:30.269Z,16.77
2022-12-13T22:14:57.705Z,16.92
2022-12-13T22:17:31.214Z,16.88
2022-12-13T22:20:02.194Z,16.00
2022-12-13T22:22:30.018Z,15.73
2022-12-13T22:24:57.332Z,16.55
2022-12-13T22:27:25.473Z,16.95
2022-12-13T22:30:09.789Z,16.95
2022-12-13T22:32:37.128Z,16.52
2022-12-13T22:35:04.862Z,16.88
2022-12-13T22:37:33.225Z,16.92
2022-12-13T22:40:00.542Z,16.33
2022-12-13T22:42:28.099Z,15.65
2022-12-13T22:44:55.518Z,16.38
2022-12-13T22:47:22.843Z,15.98
2022-12-13T22:49:50.337Z,17.40
2022-12-13T22:52:17.826Z,16.90
2022-12-13T22:54:45.135Z,17.27
2022-12-13T22:57:12.441Z,16.92
2022-12-13T22:59:40.071Z,16.42
2022-12-13T23:02:07.778Z,16.50
2022-12-13T23:04:35.238Z,16.15
2022-12-13T23:07:02.570Z,16.30
2022-12-13T23:09:30.967Z,17.20
2022-12-13T23:12:16.966Z,18.00
2022-12-13T23:14:44.250Z,17.02
2022-12-13T23:17:11.668Z,18.10
2022-12-13T23:19:48.684Z,17.52
2022-12-13T23:22:19.360Z,17.80
2022-12-13T23:24:46.675Z,17.45
2022-12-13T23:27:14.037Z,17.73
2022-12-13T23:29:41.383Z,18.77
2022-12-13T23:32:08.761Z,18.25
2022-12-13T23:34:36.074Z,17.65
2022-12-13T23:37:03.387Z,18.63
2022-12-13T23:39:30.781Z,18.13
2022-12-13T23:41:58.098Z,17.98
2022-12-13T23:44:25.393Z,18.30
2022-12-13T23:46:52.686Z,18.38
2022-12-13T23:49:20.023Z,18.45
2022-12-13T23:51:47.310Z,17.70
2022-12-13T23:54:17.766Z,18.35
2022-12-13T23:56:45.978Z,17.70
2022-12-13T23:59:13.360Z,17.83
